Pagrindinis puslapis
METAR-TAF:

METAR-TAF

Oro uostai :

Marianhamina, Suomija

platuma: 60-07N, ilguma: 019-54E, Aukštis: 6 m

Dabartinis oras

Ataskaita buvo paskelbta 19 minutes, ne 20:20 UTC
Vėjas 17 kt iš Pietų/Pietvakarių
Temperatūra 14°C
Drėgmė 82%
Slėgis 993 hPa
Matomumas 10 km arba daugiau
nėra debesų žemiau 1500 m ir nėra kamuolinių lietaus debesų

METAR: EFMA 062020Z AUTO 20017KT CAVOK 14/11 Q0993

Laikas: 23:39 (20:39 UTC)

Prognozė

Ataskaita buvo paskelbta 3 valandos ir 3 minutes, ne 17:36 UTC
Prognozė galioja nuo 06 metu 18 UTC su 07 metu 03 UTC
Vėjas 18 kt iš Pietų/Pietvakarių
Matomumas 10 km arba daugiau
nėra debesų žemiau 1500 m ir nėra kamuolinių lietaus debesų
Laikinai
nuo 06 metu 18 UTC su 06 metu 24 UTC
Matomumas: 5000 m
Išsisklaidę debesys ne aukštis 4000 ft, Liūtiniai kamuoliniai debesys.
lietus
Tikimybė 30%
nuo 06 metu 18 UTC su 06 metu 21 UTC
perkūnija, lietus

TAF: EFMA 061736Z 0618/0703 21018KT CAVOK TEMPO 0618/0624 5000 SHRA SCT040CB PROB30 0618/0621 TSRA

Orai ataskaitas ir orų prognozės (METAR, TAF).

turimą stotys yra geltonos ir raudonos taškus žemėlapyje.

Perkelti pele per norėdami pamatyti stoties vardą.

Tada spustelėkite, norėdami matyti oro stebėjimo ir prognozės.

Norėdami pakeisti žemėlapį: spustelėkite ant žalios mygtukų su juodo kryžiaus žemyn,; žalią mygtuką su brūkšneliu, jei norite nutolinti; arba žalių rodyklių gretimoms žemėlapius.


METAR-TAF: